createdAt,value
2023-08-17T00:01:22.293Z,100308.31
2023-08-17T00:03:50.718Z,100308.31
2023-08-17T00:06:19.043Z,100295.34
2023-08-17T00:08:49.241Z,100309.44
2023-08-17T00:11:19.110Z,100302.69
2023-08-17T00:13:50.722Z,100304.25
2023-08-17T00:16:20.385Z,100308.09
2023-08-17T00:18:49.887Z,100310.81
2023-08-17T00:21:21.120Z,100313.91
2023-08-17T00:23:50.408Z,100307.69
2023-08-17T00:26:19.543Z,100310.81
2023-08-17T00:28:50.547Z,100309.25
2023-08-17T00:31:20.036Z,100315.59
2023-08-17T00:33:49.015Z,100316.03
2023-08-17T00:36:18.307Z,100310.25
2023-08-17T00:38:47.702Z,100323.16
2023-08-17T00:41:19.150Z,100312.22
2023-08-17T00:43:49.786Z,100320.41
2023-08-17T00:46:21.792Z,100317.72
2023-08-17T00:48:51.017Z,100316.94
2023-08-17T00:51:21.824Z,100313.03
2023-08-17T00:53:50.522Z,100325.53
2023-08-17T00:56:18.969Z,100313.41
2023-08-17T00:58:48.804Z,100314.22
2023-08-17T01:01:17.153Z,100304.06
2023-08-17T01:03:45.524Z,100302.44
2023-08-17T01:06:15.009Z,100301.72
2023-08-17T01:08:47.437Z,100302.53
2023-08-17T01:11:27.706Z,100298.22
2023-08-17T01:14:05.018Z,100302.91
2023-08-17T01:16:41.507Z,100293.88
2023-08-17T01:19:12.029Z,100295.06
2023-08-17T01:21:46.214Z,100285.69
2023-08-17T01:24:17.720Z,100299.34
2023-08-17T01:26:48.367Z,100285.66
2023-08-17T01:29:18.792Z,100274.69
2023-08-17T01:31:55.652Z,100271.53
2023-08-17T01:34:28.766Z,100277.78
2023-08-17T01:37:01.817Z,100277.88
2023-08-17T01:39:40.056Z,100277.13
2023-08-17T01:42:09.843Z,100278.63
2023-08-17T01:44:38.335Z,100271.94
2023-08-17T01:47:06.897Z,100267.22
2023-08-17T01:49:35.213Z,100260.09
2023-08-17T01:52:03.850Z,100273.91
2023-08-17T01:54:33.725Z,100273.13
2023-08-17T01:57:02.028Z,100265.34
2023-08-17T01:59:30.344Z,100273.22
2023-08-17T02:01:58.732Z,100264.97
2023-08-17T02:04:27.393Z,100266.16
2023-08-17T02:06:55.763Z,100272.75
2023-08-17T02:09:26.171Z,100264.84
2023-08-17T02:11:56.269Z,100267.94
2023-08-17T02:14:24.623Z,100268.28
2023-08-17T02:16:52.995Z,100259.00
2023-08-17T02:19:22.324Z,100270.38
2023-08-17T02:21:50.605Z,100269.56
2023-08-17T02:24:18.891Z,100270.38
2023-08-17T02:26:47.337Z,100260.56
2023-08-17T02:29:17.101Z,100268.84
2023-08-17T02:31:45.451Z,100255.94
2023-08-17T02:34:13.755Z,100253.63
2023-08-17T02:36:42.062Z,100265.38
2023-08-17T02:39:10.487Z,100261.44
2023-08-17T02:41:38.831Z,100271.31
2023-08-17T02:44:07.275Z,100268.59
2023-08-17T02:46:38.453Z,100252.19
2023-08-17T02:49:07.022Z,100275.28
2023-08-17T02:51:35.386Z,100259.56
2023-08-17T02:54:03.653Z,100264.63
2023-08-17T02:56:32.005Z,100258.81
2023-08-17T02:59:00.276Z,100265.06
2023-08-17T03:01:28.663Z,100262.38
2023-08-17T03:03:58.684Z,100267.88
2023-08-17T03:06:27.114Z,100261.22
2023-08-17T03:08:55.460Z,100271.38
2023-08-17T03:11:23.859Z,100265.53
2023-08-17T03:13:52.208Z,100262.75
2023-08-17T03:16:20.645Z,100272.53
2023-08-17T03:18:49.389Z,100264.72
2023-08-17T03:21:19.873Z,100279.63
2023-08-17T03:23:48.165Z,100265.13
2023-08-17T03:26:16.663Z,100266.34
2023-08-17T03:28:45.151Z,100264.34
2023-08-17T03:31:13.912Z,100275.34
2023-08-17T03:33:42.651Z,100273.00
2023-08-17T03:36:11.003Z,100264.72
2023-08-17T03:38:40.872Z,100281.88
2023-08-17T03:41:09.252Z,100266.91
2023-08-17T03:43:37.665Z,100276.75
2023-08-17T03:46:07.174Z,100277.88
2023-08-17T03:48:35.630Z,100281.72
2023-08-17T03:51:04.137Z,100272.84
2023-08-17T03:53:32.641Z,100294.72
2023-08-17T03:56:02.444Z,100285.53
2023-08-17T03:58:34.643Z,100288.50
2023-08-17T04:01:03.578Z,100301.31
2023-08-17T04:03:32.092Z,100292.56
2023-08-17T04:06:00.665Z,100290.97
2023-08-17T04:08:29.252Z,100304.78
2023-08-17T04:10:57.673Z,100303.28
2023-08-17T04:13:28.722Z,100295.69
2023-08-17T04:15:57.357Z,100302.50
2023-08-17T04:18:25.874Z,100299.56
2023-08-17T04:20:55.398Z,100311.03
2023-08-17T04:23:24.132Z,100296.03
2023-08-17T04:25:52.433Z,100297.75
2023-08-17T04:28:21.585Z,100303.88
2023-08-17T04:30:52.137Z,100305.88
2023-08-17T04:33:24.108Z,100297.47
2023-08-17T04:35:52.401Z,100294.44
2023-08-17T04:38:20.782Z,100306.91
2023-08-17T04:40:49.271Z,100305.22
2023-08-17T04:43:18.853Z,100301.06
2023-08-17T04:45:49.036Z,100316.34
2023-08-17T04:48:18.998Z,100304.97
2023-08-17T04:50:47.633Z,100310.06
2023-08-17T04:53:15.901Z,100302.94
2023-08-17T04:55:44.300Z,100307.78
2023-08-17T04:58:12.709Z,100304.97
2023-08-17T05:00:41.036Z,100304.19
2023-08-17T05:03:14.341Z,100295.97
2023-08-17T05:05:54.488Z,100307.34
2023-08-17T05:08:23.532Z,100307.34
2023-08-17T05:10:52.001Z,100303.31
2023-08-17T05:13:20.486Z,100307.84
2023-08-17T05:15:49.022Z,100300.25
2023-08-17T05:18:17.388Z,100302.50
2023-08-17T05:20:45.827Z,100291.13
2023-08-17T05:23:15.560Z,100295.09
2023-08-17T05:25:43.897Z,100290.31
2023-08-17T05:28:12.316Z,100307.94
2023-08-17T05:30:40.591Z,100296.50
2023-08-17T05:33:08.930Z,100291.66
2023-08-17T05:35:37.517Z,100302.53
2023-08-17T05:38:06.412Z,100303.91
2023-08-17T05:40:36.136Z,100293.22
2023-08-17T05:43:04.477Z,100286.91
2023-08-17T05:45:32.921Z,100298.28
2023-08-17T05:48:01.242Z,100308.50
2023-08-17T05:50:30.442Z,100303.41
2023-08-17T05:52:59.081Z,100291.50
2023-08-17T05:55:27.537Z,100296.94
2023-08-17T05:57:57.438Z,100302.69
2023-08-17T06:00:25.843Z,100291.69
2023-08-17T06:02:56.343Z,100294.50
2023-08-17T06:05:27.375Z,100294.81
2023-08-17T06:07:55.704Z,100307.13
2023-08-17T06:10:26.169Z,100295.47
2023-08-17T06:12:54.729Z,100311.59
2023-08-17T06:15:25.047Z,100312.66
2023-08-17T06:17:53.511Z,100299.81
2023-08-17T06:20:22.016Z,100317.06
2023-08-17T06:22:51.500Z,100301.50
2023-08-17T06:25:19.942Z,100304.09
2023-08-17T06:27:51.084Z,100292.41
2023-08-17T06:30:19.694Z,100303.59
2023-08-17T06:32:49.771Z,100305.38
2023-08-17T06:35:18.142Z,100306.03
2023-08-17T06:37:49.113Z,100293.72
2023-08-17T06:40:17.402Z,100298.69
2023-08-17T06:42:45.814Z,100306.25
2023-08-17T06:45:14.247Z,100325.31
2023-08-17T06:47:42.594Z,100317.31
2023-08-17T06:50:13.362Z,100296.47
2023-08-17T06:52:41.945Z,100295.13
2023-08-17T06:55:11.314Z,100304.75
2023-08-17T06:57:39.883Z,100310.19
2023-08-17T07:00:09.788Z,100301.06
2023-08-17T07:02:52.003Z,100295.34
2023-08-17T07:05:25.040Z,100309.84
2023-08-17T07:07:54.141Z,100312.59
2023-08-17T07:10:22.728Z,100317.28
2023-08-17T07:12:51.199Z,100313.72
2023-08-17T07:15:19.622Z,100332.25
2023-08-17T07:17:47.909Z,100327.00
2023-08-17T07:20:17.521Z,100330.88
2023-08-17T07:22:47.485Z,100341.69
2023-08-17T07:25:15.850Z,100335.06
2023-08-17T07:27:44.403Z,100342.81
2023-08-17T07:30:13.979Z,100349.53
2023-08-17T07:32:42.253Z,100342.47
2023-08-17T07:35:10.873Z,100347.38
2023-08-17T07:37:39.170Z,100353.44
2023-08-17T07:40:10.170Z,100353.88
2023-08-17T07:42:39.178Z,100355.50
2023-08-17T07:45:08.627Z,100352.03
2023-08-17T07:47:38.260Z,100360.06
2023-08-17T07:50:07.992Z,100366.88
2023-08-17T07:52:36.339Z,100360.84
2023-08-17T07:55:05.077Z,100354.97
2023-08-17T07:57:34.831Z,100350.22
2023-08-17T08:00:03.241Z,100357.25
2023-08-17T08:02:31.688Z,100351.78
2023-08-17T08:05:00.181Z,100358.16
2023-08-17T08:07:28.750Z,100359.91
2023-08-17T08:09:57.332Z,100354.38
2023-08-17T08:12:25.942Z,100353.31
2023-08-17T08:14:55.706Z,100348.72
2023-08-17T08:17:24.070Z,100352.44
2023-08-17T08:19:52.454Z,100349.38
2023-08-17T08:22:20.892Z,100343.34
2023-08-17T08:24:49.293Z,100354.97
2023-08-17T08:27:17.608Z,100347.16
2023-08-17T08:29:46.033Z,100349.84
2023-08-17T08:32:15.818Z,100344.63
2023-08-17T08:34:44.149Z,100353.56
2023-08-17T08:37:12.521Z,100359.53
2023-08-17T08:39:52.252Z,100345.53
2023-08-17T08:42:20.661Z,100347.78
2023-08-17T08:44:49.334Z,100367.44
2023-08-17T08:47:20.177Z,100353.03
2023-08-17T08:49:55.748Z,100338.13
2023-08-17T08:52:26.869Z,100363.78
2023-08-17T08:54:59.526Z,100348.59
2023-08-17T08:57:30.879Z,100344.47
2023-08-17T09:00:01.442Z,100337.78
2023-08-17T09:02:32.384Z,100346.78
2023-08-17T09:05:01.991Z,100344.47
2023-08-17T09:07:32.803Z,100330.63
2023-08-17T09:10:01.445Z,100343.28
2023-08-17T09:12:39.320Z,100359.78
2023-08-17T09:15:10.317Z,100354.59
2023-08-17T09:17:40.586Z,100354.59
2023-08-17T09:20:11.667Z,100352.31
2023-08-17T09:22:41.465Z,100337.53
2023-08-17T09:25:11.048Z,100353.00
2023-08-17T09:27:39.549Z,100360.06
2023-08-17T09:30:09.469Z,100356.03
2023-08-17T09:32:39.622Z,100359.22
2023-08-17T09:35:09.282Z,100374.66
2023-08-17T09:37:37.858Z,100363.06
2023-08-17T09:40:06.963Z,100349.34
2023-08-17T09:42:37.965Z,100342.75
2023-08-17T09:45:07.372Z,100348.50
2023-08-17T09:47:35.795Z,100380.22
2023-08-17T09:50:08.653Z,100351.06
2023-08-17T09:52:41.307Z,100347.81
2023-08-17T09:55:12.293Z,100359.44
2023-08-17T09:57:42.701Z,100361.44
2023-08-17T10:00:12.226Z,100355.78
2023-08-17T10:02:40.604Z,100351.81
2023-08-17T10:05:12.473Z,100348.94
2023-08-17T10:07:45.828Z,100346.69
2023-08-17T10:10:16.295Z,100360.47
2023-08-17T10:12:56.275Z,100362.91
2023-08-17T10:15:29.109Z,100354.97
2023-08-17T10:18:05.790Z,100358.63
2023-08-17T10:20:42.434Z,100356.81
2023-08-17T10:23:18.753Z,100345.56
2023-08-17T10:25:51.499Z,100352.47
2023-08-17T10:28:21.752Z,100356.59
2023-08-17T10:30:51.360Z,100348.50
2023-08-17T10:33:21.703Z,100355.59
2023-08-17T10:35:51.943Z,100358.16
2023-08-17T10:38:20.679Z,100348.19
2023-08-17T10:41:17.866Z,100345.13
2023-08-17T10:43:59.468Z,100347.72
2023-08-17T10:46:37.900Z,100347.72
2023-08-17T10:49:08.124Z,100346.16
2023-08-17T10:51:37.986Z,100342.47
2023-08-17T10:54:07.095Z,100349.78
2023-08-17T10:56:35.601Z,100354.63
2023-08-17T10:59:04.871Z,100340.97
2023-08-17T11:01:38.003Z,100346.44
2023-08-17T11:04:14.156Z,100342.81
2023-08-17T11:06:44.918Z,100352.09
2023-08-17T11:09:13.878Z,100339.28
2023-08-17T11:11:43.037Z,100342.56
2023-08-17T11:14:11.533Z,100337.50
2023-08-17T11:16:39.869Z,100327.56
2023-08-17T11:19:13.569Z,100334.03
2023-08-17T11:21:44.425Z,100336.56
2023-08-17T11:24:13.133Z,100329.03
2023-08-17T11:26:41.518Z,100324.41
2023-08-17T11:29:10.197Z,100340.75
2023-08-17T11:31:38.570Z,100322.88
2023-08-17T11:34:07.064Z,100331.88
2023-08-17T11:36:35.880Z,100330.66
2023-08-17T11:39:10.586Z,100321.91
2023-08-17T11:41:39.152Z,100338.09
2023-08-17T11:44:08.013Z,100339.38
2023-08-17T11:46:36.398Z,100338.25
2023-08-17T11:49:04.976Z,100337.25
2023-08-17T11:51:33.665Z,100328.34
2023-08-17T11:54:04.324Z,100338.50
2023-08-17T11:56:34.171Z,100338.38
2023-08-17T11:59:12.546Z,100334.03
2023-08-17T12:01:41.010Z,100338.59
2023-08-17T12:04:10.074Z,100343.75
2023-08-17T12:06:40.600Z,100331.56
2023-08-17T12:09:09.539Z,100331.16
2023-08-17T12:11:40.346Z,100323.88
2023-08-17T12:14:12.779Z,100322.44
2023-08-17T12:16:49.699Z,100321.38
2023-08-17T12:19:18.071Z,100321.97
2023-08-17T12:21:46.448Z,100321.78
2023-08-17T12:24:15.814Z,100330.31
2023-08-17T12:26:45.880Z,100319.78
2023-08-17T12:29:14.457Z,100340.53
2023-08-17T12:31:43.240Z,100329.03
2023-08-17T12:34:11.704Z,100335.25
2023-08-17T12:36:40.050Z,100335.72
2023-08-17T12:39:08.406Z,100337.88
2023-08-17T12:41:36.836Z,100330.53
2023-08-17T12:44:06.935Z,100338.72
2023-08-17T12:46:36.012Z,100332.41
2023-08-17T12:49:04.343Z,100324.06
2023-08-17T12:51:32.640Z,100335.78
2023-08-17T12:54:01.003Z,100328.69
2023-08-17T12:56:29.286Z,100322.81
2023-08-17T12:59:03.013Z,100321.50
2023-08-17T13:01:33.210Z,100317.03
2023-08-17T13:04:01.593Z,100319.47
2023-08-17T13:06:43.746Z,100313.19
2023-08-17T13:09:17.244Z,100320.25
2023-08-17T13:11:45.597Z,100309.56
2023-08-17T13:14:14.143Z,100320.75
2023-08-17T13:16:44.098Z,100323.34
2023-08-17T13:19:12.527Z,100314.28
2023-08-17T13:21:40.860Z,100304.03
2023-08-17T13:24:09.983Z,100326.78
2023-08-17T13:26:38.433Z,100319.69
2023-08-17T13:29:06.979Z,100323.44
2023-08-17T13:31:35.312Z,100311.91
2023-08-17T13:34:04.637Z,100336.25
2023-08-17T13:36:33.131Z,100315.50
2023-08-17T13:39:01.513Z,100324.91
2023-08-17T13:41:29.797Z,100328.56
2023-08-17T13:44:00.774Z,100321.69
2023-08-17T13:46:29.992Z,100322.88
2023-08-17T13:48:58.698Z,100322.88
2023-08-17T13:51:28.884Z,100329.78
2023-08-17T13:53:57.259Z,100340.66
2023-08-17T13:56:26.689Z,100332.44
2023-08-17T13:58:56.298Z,100328.84
2023-08-17T14:01:24.661Z,100320.09
2023-08-17T14:03:53.383Z,100324.47
2023-08-17T14:06:21.883Z,100339.09
2023-08-17T14:08:52.513Z,100335.19
2023-08-17T14:11:21.112Z,100351.13
2023-08-17T14:13:49.423Z,100339.75
2023-08-17T14:16:17.817Z,100340.00
2023-08-17T14:18:46.121Z,100348.53
2023-08-17T14:21:14.485Z,100341.91
2023-08-17T14:23:42.794Z,100348.28
2023-08-17T14:26:12.582Z,100345.25
2023-08-17T14:28:44.392Z,100341.97
2023-08-17T14:31:17.117Z,100344.75
2023-08-17T14:33:45.567Z,100343.13
2023-08-17T14:36:19.517Z,100344.31
2023-08-17T14:38:48.523Z,100341.56
2023-08-17T14:41:18.272Z,100342.25
2023-08-17T14:43:46.766Z,100351.63
2023-08-17T14:46:15.862Z,100357.97
2023-08-17T14:48:44.591Z,100345.03
2023-08-17T14:51:12.996Z,100332.47
2023-08-17T14:53:41.344Z,100348.88
2023-08-17T14:56:09.670Z,100337.78
2023-08-17T14:58:39.646Z,100338.03
2023-08-17T15:01:08.025Z,100344.91
2023-08-17T15:03:36.572Z,100331.16
2023-08-17T15:06:05.099Z,100333.19
2023-08-17T15:08:33.443Z,100344.22
2023-08-17T15:11:03.443Z,100333.63
2023-08-17T15:13:31.758Z,100331.31
2023-08-17T15:16:01.668Z,100330.25
2023-08-17T15:18:30.060Z,100342.69
2023-08-17T15:20:58.347Z,100333.34
2023-08-17T15:23:26.647Z,100335.25
2023-08-17T15:25:55.069Z,100330.97
2023-08-17T15:28:23.359Z,100329.94
2023-08-17T15:31:01.890Z,100329.59
2023-08-17T15:33:31.842Z,100341.56
2023-08-17T15:36:02.120Z,100331.84
2023-08-17T15:38:30.454Z,100332.34
2023-08-17T15:40:58.788Z,100329.63
2023-08-17T15:43:27.155Z,100337.09
2023-08-17T15:45:55.554Z,100332.44
2023-08-17T15:48:23.882Z,100323.16
2023-08-17T15:50:53.724Z,100326.53
2023-08-17T15:53:22.089Z,100322.59
2023-08-17T15:55:50.596Z,100325.72
2023-08-17T15:58:18.826Z,100325.56
2023-08-17T16:00:47.230Z,100326.84
2023-08-17T16:03:16.931Z,100327.56
2023-08-17T16:05:45.372Z,100330.31
2023-08-17T16:08:15.108Z,100325.81
2023-08-17T16:10:43.532Z,100327.19
2023-08-17T16:13:12.279Z,100331.09
2023-08-17T16:15:40.683Z,100331.56
2023-08-17T16:18:09.292Z,100323.38
2023-08-17T16:20:37.633Z,100325.00
2023-08-17T16:23:06.303Z,100320.84
2023-08-17T16:25:36.014Z,100332.41
2023-08-17T16:28:04.999Z,100340.09
2023-08-17T16:30:36.628Z,100334.47
2023-08-17T16:33:05.555Z,100327.97
2023-08-17T16:35:33.897Z,100327.88
2023-08-17T16:38:02.217Z,100332.19
2023-08-17T16:40:37.632Z,100338.34
2023-08-17T16:43:08.437Z,100339.03
2023-08-17T16:45:36.749Z,100335.84
2023-08-17T16:48:05.670Z,100329.94
2023-08-17T16:50:34.561Z,100338.19
2023-08-17T16:53:03.256Z,100341.59
2023-08-17T16:55:32.646Z,100345.13
2023-08-17T16:58:01.047Z,100336.44
2023-08-17T17:00:31.434Z,100343.09
2023-08-17T17:02:59.809Z,100350.28
2023-08-17T17:05:28.344Z,100347.44
2023-08-17T17:07:58.654Z,100352.66
2023-08-17T17:10:27.371Z,100351.16
2023-08-17T17:12:55.693Z,100346.47
2023-08-17T17:15:24.241Z,100346.84
2023-08-17T17:17:54.031Z,100348.00
2023-08-17T17:20:22.621Z,100350.34
2023-08-17T17:22:51.313Z,100345.81
2023-08-17T17:25:19.826Z,100357.84
2023-08-17T17:27:48.097Z,100355.31
2023-08-17T17:30:16.397Z,100348.53
2023-08-17T17:32:44.770Z,100359.31
2023-08-17T17:35:14.659Z,100344.28
2023-08-17T17:37:42.971Z,100354.72
2023-08-17T17:40:12.465Z,100360.78
2023-08-17T17:42:40.870Z,100362.97
2023-08-17T17:45:09.762Z,100383.81
2023-08-17T17:47:38.223Z,100361.94
2023-08-17T17:50:08.800Z,100379.25
2023-08-17T17:52:38.606Z,100390.19
2023-08-17T17:55:07.734Z,100386.38
2023-08-17T17:57:36.055Z,100388.41
2023-08-17T18:00:05.990Z,100388.47
2023-08-17T18:02:34.805Z,100388.56
2023-08-17T18:05:03.298Z,100385.84
2023-08-17T18:07:31.632Z,100392.25
2023-08-17T18:10:03.527Z,100384.34
2023-08-17T18:12:33.599Z,100401.56
2023-08-17T18:15:01.922Z,100396.16
2023-08-17T18:17:30.529Z,100394.59
2023-08-17T18:20:01.893Z,100408.81
2023-08-17T18:22:30.338Z,100405.97
2023-08-17T18:24:58.801Z,100403.22
2023-08-17T18:27:28.876Z,100401.81
2023-08-17T18:29:57.539Z,100400.38
2023-08-17T18:32:25.854Z,100409.78
2023-08-17T18:34:54.189Z,100402.66
2023-08-17T18:37:22.513Z,100390.56
2023-08-17T18:39:50.812Z,100406.72
2023-08-17T18:42:19.161Z,100393.72
2023-08-17T18:44:48.917Z,100398.81
2023-08-17T18:47:17.300Z,100400.03
2023-08-17T18:49:45.603Z,100402.38
2023-08-17T18:52:13.926Z,100397.78
2023-08-17T18:54:59.421Z,100396.94
2023-08-17T18:57:27.998Z,100396.25
2023-08-17T18:59:58.031Z,100398.25
2023-08-17T19:02:26.419Z,100396.31
2023-08-17T19:04:54.892Z,100392.78
2023-08-17T19:07:23.787Z,100394.75
2023-08-17T19:09:52.119Z,100394.22
2023-08-17T19:12:20.595Z,100388.84
2023-08-17T19:14:49.163Z,100395.94
2023-08-17T19:17:19.539Z,100394.00
2023-08-17T19:19:48.129Z,100402.34
2023-08-17T19:22:16.445Z,100391.94
2023-08-17T19:24:44.983Z,100387.28
2023-08-17T19:27:13.424Z,100378.34
2023-08-17T19:29:41.707Z,100394.44
2023-08-17T19:32:10.126Z,100392.09
2023-08-17T19:34:39.946Z,100390.56
2023-08-17T19:37:08.297Z,100389.00
2023-08-17T19:39:36.648Z,100388.69
2023-08-17T19:42:05.120Z,100386.34
2023-08-17T19:44:33.612Z,100388.34
2023-08-17T19:47:02.040Z,100398.56
2023-08-17T19:49:30.314Z,100390.31
2023-08-17T19:52:00.143Z,100392.38
2023-08-17T19:54:28.549Z,100385.28
2023-08-17T19:56:57.914Z,100383.00
2023-08-17T19:59:27.227Z,100382.19
2023-08-17T20:01:55.692Z,100384.13
2023-08-17T20:04:24.092Z,100383.03
2023-08-17T20:06:53.030Z,100387.75
2023-08-17T20:09:22.955Z,100386.91
2023-08-17T20:11:51.222Z,100376.00
2023-08-17T20:14:21.259Z,100383.16
2023-08-17T20:16:51.779Z,100367.91
2023-08-17T20:19:20.132Z,100371.44
2023-08-17T20:21:48.783Z,100370.63
2023-08-17T20:24:18.022Z,100373.38
2023-08-17T20:26:48.141Z,100371.75
2023-08-17T20:29:16.477Z,100370.56
2023-08-17T20:31:45.663Z,100374.50
2023-08-17T20:34:14.042Z,100384.66
2023-08-17T20:36:42.574Z,100378.41
2023-08-17T20:39:12.119Z,100370.47
2023-08-17T20:41:40.930Z,100370.53
2023-08-17T20:44:10.768Z,100373.63
2023-08-17T20:46:39.133Z,100375.13
2023-08-17T20:49:08.902Z,100368.09
2023-08-17T20:51:37.340Z,100372.72
2023-08-17T20:54:06.167Z,100369.16
2023-08-17T20:56:34.467Z,100365.31
2023-08-17T20:59:02.829Z,100361.47
2023-08-17T21:01:32.759Z,100366.50
2023-08-17T21:04:01.239Z,100360.47
2023-08-17T21:06:29.697Z,100354.94
2023-08-17T21:08:58.003Z,100356.50
2023-08-17T21:11:27.468Z,100361.66
2023-08-17T21:13:55.838Z,100353.00
2023-08-17T21:16:24.184Z,100348.34
2023-08-17T21:18:58.585Z,100355.75
2023-08-17T21:21:27.063Z,100357.34
2023-08-17T21:23:55.373Z,100357.63
2023-08-17T21:26:23.780Z,100351.31
2023-08-17T21:28:52.965Z,100350.50
2023-08-17T21:31:21.384Z,100346.66
2023-08-17T21:33:49.757Z,100351.31
2023-08-17T21:36:19.615Z,100347.41
2023-08-17T21:38:48.622Z,100347.41
2023-08-17T21:41:16.963Z,100348.84
2023-08-17T21:43:45.309Z,100351.91
2023-08-17T21:46:13.721Z,100347.19
2023-08-17T21:48:42.258Z,100344.78
2023-08-17T21:51:10.545Z,100362.91
2023-08-17T21:53:40.222Z,100360.56
2023-08-17T21:56:08.586Z,100346.44
2023-08-17T21:58:36.893Z,100347.97
2023-08-17T22:01:05.957Z,100354.28
2023-08-17T22:03:34.669Z,100344.09
2023-08-17T22:06:07.084Z,100355.50
2023-08-17T22:08:36.386Z,100345.34
2023-08-17T22:11:06.111Z,100347.38
2023-08-17T22:13:34.489Z,100341.88
2023-08-17T22:16:03.013Z,100341.97
2023-08-17T22:18:31.361Z,100345.09
2023-08-17T22:20:59.659Z,100351.38
2023-08-17T22:23:28.232Z,100347.50
2023-08-17T22:25:56.961Z,100350.06
2023-08-17T22:28:28.956Z,100355.94
2023-08-17T22:31:04.855Z,100346.53
2023-08-17T22:33:33.198Z,100346.94
2023-08-17T22:36:01.573Z,100352.84
2023-08-17T22:38:29.835Z,100359.91
2023-08-17T22:40:58.252Z,100357.22
2023-08-17T22:43:26.514Z,100361.19
2023-08-17T22:45:56.242Z,100356.88
2023-08-17T22:48:24.745Z,100353.25
2023-08-17T22:50:53.492Z,100374.91
2023-08-17T22:53:22.168Z,100353.66
2023-08-17T22:55:50.503Z,100351.34
2023-08-17T22:58:18.979Z,100352.94
2023-08-17T23:00:47.413Z,100347.47
2023-08-17T23:03:17.174Z,100352.16
2023-08-17T23:05:46.118Z,100349.81
2023-08-17T23:08:14.429Z,100340.41
2023-08-17T23:10:43.304Z,100349.44
2023-08-17T23:13:11.618Z,100341.56
2023-08-17T23:15:39.914Z,100351.03
2023-08-17T23:18:08.338Z,100339.63
2023-08-17T23:20:38.101Z,100352.09
2023-08-17T23:23:07.526Z,100340.34
2023-08-17T23:25:35.928Z,100343.91
2023-08-17T23:28:04.306Z,100340.25
2023-08-17T23:30:32.719Z,100340.56
2023-08-17T23:33:01.044Z,100326.84
2023-08-17T23:35:29.416Z,100343.31
2023-08-17T23:38:00.101Z,100338.56
2023-08-17T23:40:28.556Z,100331.16
2023-08-17T23:42:57.238Z,100333.13
2023-08-17T23:45:25.678Z,100335.13
2023-08-17T23:47:54.073Z,100335.47
2023-08-17T23:50:22.614Z,100311.16
2023-08-17T23:52:51.372Z,100320.94
2023-08-17T23:55:21.339Z,100330.88
2023-08-17T23:57:50.573Z,100341.09
